Página principal
METAR-TAF:

METAR-TAF

Aeroportos :

Aeroporto de Madrid-Barajas

Madrid, Espanha

latitude: 40-27N, longitude: 003-33W, altura: 609 m

Observação actual do tempo

O boletim foi feito há 34 minutos, às 03:00 UTC
Vento 7 kt de nor-noroeste, variando entre noroeste e nor-nordeste
Temperatura 21°C
Humidade 60%
Pressão 1024 hPa
Visibilidade 10 km ou mais
sem nuvens abaixo de 1500 metros e sem cumulonimbus

METAR: LEMD 240300Z 34007KT 310V020 CAVOK 21/13 Q1024 NOSIG

Hora: 05:34 (03:34 UTC)

Previsão

O boletim foi feito há 4 horas e 34 minutos, às 23:00 UTC
Previsão válida de 24 às 00 UTC a 25 às 06 UTC
Vento 9 kt de nordeste
Visibilidade 10 km ou mais
sem nuvens abaixo de 1500 metros e sem cumulonimbus
Probabilidade 40% :
Temporariamente
de 24 às 20 UTC a 24 às 24 UTC
Vento 10 kt de nordeste com rajadas de 20 kt

TAF: LEMD 232300Z 2400/2506 04009KT CAVOK TX33/2415Z TN17/2406Z PROB40 TEMPO 2420/2424 04010G20KT

Observações e previsões do tempo de mais de 4000 aeroportos (mensagens METAR e TAF).

As estações disponíveis são os pontos amarelos e vermelhos sobre o mapa.

Mova o rato sobre o mapa para ver o nome da estação.

Depois clique no ponto para visualizar as observações e previsões meteorológicas.

Para alterar o mapa : clique nos botões verdes com uma cruz preta para aumentar o zoom; no botão verde com uma pitada de zoom; ou nas setas verdes para mapas adjacentes.


METAR-TAF: